sensor_id;sensor_type;location;lat;lon;timestamp;temperature;humidity
21149;DHT22;10732;51.472;6.466;2023-04-08T00:01:00;8.20;99.90
21149;DHT22;10732;51.472;6.466;2023-04-08T00:03:26;8.20;99.90
21149;DHT22;10732;51.472;6.466;2023-04-08T00:05:51;8.20;99.90
21149;DHT22;10732;51.472;6.466;2023-04-08T00:08:17;8.10;99.90
21149;DHT22;10732;51.472;6.466;2023-04-08T00:10:42;8.10;99.90
21149;DHT22;10732;51.472;6.466;2023-04-08T00:13:08;8.10;99.90
21149;DHT22;10732;51.472;6.466;2023-04-08T00:15:35;8.00;99.90
21149;DHT22;10732;51.472;6.466;2023-04-08T00:18:01;8.10;99.90
21149;DHT22;10732;51.472;6.466;2023-04-08T00:20:26;8.10;99.90
21149;DHT22;10732;51.472;6.466;2023-04-08T00:22:52;8.10;99.90
21149;DHT22;10732;51.472;6.466;2023-04-08T00:25:17;8.10;99.90
21149;DHT22;10732;51.472;6.466;2023-04-08T00:27:43;8.10;99.90
21149;DHT22;10732;51.472;6.466;2023-04-08T00:30:09;8.10;99.90
21149;DHT22;10732;51.472;6.466;2023-04-08T00:32:34;8.10;99.90
21149;DHT22;10732;51.472;6.466;2023-04-08T00:35:00;8.10;99.90
21149;DHT22;10732;51.472;6.466;2023-04-08T00:37:26;8.00;99.90
21149;DHT22;10732;51.472;6.466;2023-04-08T00:39:52;8.10;99.90
21149;DHT22;10732;51.472;6.466;2023-04-08T00:42:19;8.00;99.90
21149;DHT22;10732;51.472;6.466;2023-04-08T00:44:45;8.00;99.90
21149;DHT22;10732;51.472;6.466;2023-04-08T00:47:12;8.00;99.90
21149;DHT22;10732;51.472;6.466;2023-04-08T00:49:38;8.00;99.90
21149;DHT22;10732;51.472;6.466;2023-04-08T00:52:03;8.00;99.90
21149;DHT22;10732;51.472;6.466;2023-04-08T00:54:30;8.00;99.90
21149;DHT22;10732;51.472;6.466;2023-04-08T00:56:56;8.00;99.90
21149;DHT22;10732;51.472;6.466;2023-04-08T00:59:24;8.00;99.90
21149;DHT22;10732;51.472;6.466;2023-04-08T01:01:56;8.00;99.90
21149;DHT22;10732;51.472;6.466;2023-04-08T01:04:32;8.00;99.90
21149;DHT22;10732;51.472;6.466;2023-04-08T01:07:34;8.00;99.90
21149;DHT22;10732;51.472;6.466;2023-04-08T01:10:14;8.00;99.90
21149;DHT22;10732;51.472;6.466;2023-04-08T01:12:43;8.00;99.90
21149;DHT22;10732;51.472;6.466;2023-04-08T01:15:12;7.90;99.90
21149;DHT22;10732;51.472;6.466;2023-04-08T01:17:39;7.90;99.90
21149;DHT22;10732;51.472;6.466;2023-04-08T01:20:06;7.90;99.90
21149;DHT22;10732;51.472;6.466;2023-04-08T01:25:26;8.00;99.90
21149;DHT22;10732;51.472;6.466;2023-04-08T01:27:55;7.90;99.90
21149;DHT22;10732;51.472;6.466;2023-04-08T01:30:24;7.90;99.90
21149;DHT22;10732;51.472;6.466;2023-04-08T01:32:52;7.90;99.90
21149;DHT22;10732;51.472;6.466;2023-04-08T01:35:18;7.90;99.90
21149;DHT22;10732;51.472;6.466;2023-04-08T01:37:46;7.90;99.90
21149;DHT22;10732;51.472;6.466;2023-04-08T01:40:14;7.90;99.90
21149;DHT22;10732;51.472;6.466;2023-04-08T01:42:40;7.80;99.90
21149;DHT22;10732;51.472;6.466;2023-04-08T01:45:07;7.80;99.90
21149;DHT22;10732;51.472;6.466;2023-04-08T01:47:34;7.80;99.90
21149;DHT22;10732;51.472;6.466;2023-04-08T01:50:00;7.80;99.90
21149;DHT22;10732;51.472;6.466;2023-04-08T01:52:28;7.70;99.90
21149;DHT22;10732;51.472;6.466;2023-04-08T01:54:54;7.70;99.90
21149;DHT22;10732;51.472;6.466;2023-04-08T01:57:26;7.70;99.90
21149;DHT22;10732;51.472;6.466;2023-04-08T01:59:55;7.60;99.90
21149;DHT22;10732;51.472;6.466;2023-04-08T02:02:25;7.60;99.90
21149;DHT22;10732;51.472;6.466;2023-04-08T02:04:52;7.60;99.90
21149;DHT22;10732;51.472;6.466;2023-04-08T02:07:18;7.50;99.90
21149;DHT22;10732;51.472;6.466;2023-04-08T02:09:44;7.50;99.90
21149;DHT22;10732;51.472;6.466;2023-04-08T02:12:09;7.50;99.90
21149;DHT22;10732;51.472;6.466;2023-04-08T02:14:35;7.40;99.90
21149;DHT22;10732;51.472;6.466;2023-04-08T02:17:08;7.40;99.90
21149;DHT22;10732;51.472;6.466;2023-04-08T02:20:15;7.40;99.90
21149;DHT22;10732;51.472;6.466;2023-04-08T02:23:08;7.30;99.90
21149;DHT22;10732;51.472;6.466;2023-04-08T02:25:35;7.30;99.90
21149;DHT22;10732;51.472;6.466;2023-04-08T02:28:03;7.30;99.90
21149;DHT22;10732;51.472;6.466;2023-04-08T02:30:30;7.30;99.90
21149;DHT22;10732;51.472;6.466;2023-04-08T02:32:57;7.40;99.90
21149;DHT22;10732;51.472;6.466;2023-04-08T02:35:23;7.30;99.90
21149;DHT22;10732;51.472;6.466;2023-04-08T02:37:49;7.40;99.90
21149;DHT22;10732;51.472;6.466;2023-04-08T02:40:25;7.30;99.90
21149;DHT22;10732;51.472;6.466;2023-04-08T02:42:51;7.30;99.90
21149;DHT22;10732;51.472;6.466;2023-04-08T02:45:17;7.30;99.90
21149;DHT22;10732;51.472;6.466;2023-04-08T02:47:43;7.30;99.90
21149;DHT22;10732;51.472;6.466;2023-04-08T02:50:09;7.30;99.90
21149;DHT22;10732;51.472;6.466;2023-04-08T02:52:35;7.30;99.90
21149;DHT22;10732;51.472;6.466;2023-04-08T02:55:00;7.30;99.90
21149;DHT22;10732;51.472;6.466;2023-04-08T02:57:26;7.30;99.90
21149;DHT22;10732;51.472;6.466;2023-04-08T02:59:52;7.30;99.90
21149;DHT22;10732;51.472;6.466;2023-04-08T03:02:17;7.20;99.90
21149;DHT22;10732;51.472;6.466;2023-04-08T03:04:43;7.20;99.90
21149;DHT22;10732;51.472;6.466;2023-04-08T03:07:08;7.20;99.90
21149;DHT22;10732;51.472;6.466;2023-04-08T03:09:34;7.20;99.90
21149;DHT22;10732;51.472;6.466;2023-04-08T03:12:00;7.10;99.90
21149;DHT22;10732;51.472;6.466;2023-04-08T03:14:25;7.10;99.90
21149;DHT22;10732;51.472;6.466;2023-04-08T03:16:51;7.10;99.90
21149;DHT22;10732;51.472;6.466;2023-04-08T03:19:16;7.10;99.90
21149;DHT22;10732;51.472;6.466;2023-04-08T03:21:42;7.10;99.90
21149;DHT22;10732;51.472;6.466;2023-04-08T03:24:07;7.20;99.90
21149;DHT22;10732;51.472;6.466;2023-04-08T03:26:33;7.20;99.90
21149;DHT22;10732;51.472;6.466;2023-04-08T03:28:58;7.20;99.90
21149;DHT22;10732;51.472;6.466;2023-04-08T03:31:24;7.20;99.90
21149;DHT22;10732;51.472;6.466;2023-04-08T03:33:50;7.20;99.90
21149;DHT22;10732;51.472;6.466;2023-04-08T03:36:15;7.10;99.90
21149;DHT22;10732;51.472;6.466;2023-04-08T03:38:41;7.10;99.90
21149;DHT22;10732;51.472;6.466;2023-04-08T03:41:06;7.10;99.90
21149;DHT22;10732;51.472;6.466;2023-04-08T03:43:32;7.10;99.90
21149;DHT22;10732;51.472;6.466;2023-04-08T03:45:58;7.00;99.90
21149;DHT22;10732;51.472;6.466;2023-04-08T03:48:23;7.00;99.90
21149;DHT22;10732;51.472;6.466;2023-04-08T03:50:49;7.00;99.90
21149;DHT22;10732;51.472;6.466;2023-04-08T03:53:14;7.00;99.90
21149;DHT22;10732;51.472;6.466;2023-04-08T03:55:40;6.90;99.90
21149;DHT22;10732;51.472;6.466;2023-04-08T03:58:06;6.80;99.90
21149;DHT22;10732;51.472;6.466;2023-04-08T04:00:31;6.80;99.90
21149;DHT22;10732;51.472;6.466;2023-04-08T04:02:57;6.80;99.90
21149;DHT22;10732;51.472;6.466;2023-04-08T04:05:22;6.70;99.90
21149;DHT22;10732;51.472;6.466;2023-04-08T04:07:48;6.70;99.90
21149;DHT22;10732;51.472;6.466;2023-04-08T04:10:13;6.80;99.90
21149;DHT22;10732;51.472;6.466;2023-04-08T04:12:39;6.80;99.90
21149;DHT22;10732;51.472;6.466;2023-04-08T04:15:05;6.80;99.90
21149;DHT22;10732;51.472;6.466;2023-04-08T04:17:30;6.80;99.90
21149;DHT22;10732;51.472;6.466;2023-04-08T04:19:56;6.80;99.90
21149;DHT22;10732;51.472;6.466;2023-04-08T04:22:22;6.90;99.90
21149;DHT22;10732;51.472;6.466;2023-04-08T04:24:48;6.90;99.90
21149;DHT22;10732;51.472;6.466;2023-04-08T04:27:16;6.80;99.90
21149;DHT22;10732;51.472;6.466;2023-04-08T04:29:42;6.80;99.90
21149;DHT22;10732;51.472;6.466;2023-04-08T04:32:08;6.70;99.90
21149;DHT22;10732;51.472;6.466;2023-04-08T04:34:34;6.70;99.90
21149;DHT22;10732;51.472;6.466;2023-04-08T04:36:59;6.70;99.90
21149;DHT22;10732;51.472;6.466;2023-04-08T04:39:25;6.70;99.90
21149;DHT22;10732;51.472;6.466;2023-04-08T04:41:51;6.70;99.90
21149;DHT22;10732;51.472;6.466;2023-04-08T04:44:16;6.70;99.90
21149;DHT22;10732;51.472;6.466;2023-04-08T04:46:42;6.70;99.90
21149;DHT22;10732;51.472;6.466;2023-04-08T04:49:07;6.60;99.90
21149;DHT22;10732;51.472;6.466;2023-04-08T04:51:33;6.60;99.90
21149;DHT22;10732;51.472;6.466;2023-04-08T04:53:58;6.60;99.90
21149;DHT22;10732;51.472;6.466;2023-04-08T04:56:24;6.60;99.90
21149;DHT22;10732;51.472;6.466;2023-04-08T04:58:51;6.50;99.90
21149;DHT22;10732;51.472;6.466;2023-04-08T05:01:16;6.50;99.90
21149;DHT22;10732;51.472;6.466;2023-04-08T05:03:42;6.50;99.90
21149;DHT22;10732;51.472;6.466;2023-04-08T05:06:07;6.50;99.90
21149;DHT22;10732;51.472;6.466;2023-04-08T05:08:33;6.50;99.90
21149;DHT22;10732;51.472;6.466;2023-04-08T05:10:59;6.50;99.90
21149;DHT22;10732;51.472;6.466;2023-04-08T05:13:27;6.50;99.90
21149;DHT22;10732;51.472;6.466;2023-04-08T05:15:53;6.40;99.90
21149;DHT22;10732;51.472;6.466;2023-04-08T05:18:18;6.40;99.90
21149;DHT22;10732;51.472;6.466;2023-04-08T05:20:44;6.40;99.90
21149;DHT22;10732;51.472;6.466;2023-04-08T05:23:10;6.40;99.90
21149;DHT22;10732;51.472;6.466;2023-04-08T05:25:35;6.40;99.90
21149;DHT22;10732;51.472;6.466;2023-04-08T05:28:01;6.40;99.90
21149;DHT22;10732;51.472;6.466;2023-04-08T05:30:27;6.40;99.90
21149;DHT22;10732;51.472;6.466;2023-04-08T05:32:52;6.40;99.90
21149;DHT22;10732;51.472;6.466;2023-04-08T05:35:18;6.40;99.90
21149;DHT22;10732;51.472;6.466;2023-04-08T05:37:43;6.30;99.90
21149;DHT22;10732;51.472;6.466;2023-04-08T05:40:09;6.20;99.90
21149;DHT22;10732;51.472;6.466;2023-04-08T05:42:35;6.20;99.90
21149;DHT22;10732;51.472;6.466;2023-04-08T05:45:00;6.20;99.90
21149;DHT22;10732;51.472;6.466;2023-04-08T05:47:26;6.20;99.90
21149;DHT22;10732;51.472;6.466;2023-04-08T05:49:52;6.20;99.90
21149;DHT22;10732;51.472;6.466;2023-04-08T05:52:17;6.20;99.90
21149;DHT22;10732;51.472;6.466;2023-04-08T05:54:43;6.20;99.90
21149;DHT22;10732;51.472;6.466;2023-04-08T05:57:09;6.30;99.90
21149;DHT22;10732;51.472;6.466;2023-04-08T05:59:34;6.30;99.90
21149;DHT22;10732;51.472;6.466;2023-04-08T06:02:00;6.10;99.90
21149;DHT22;10732;51.472;6.466;2023-04-08T06:04:26;6.30;99.90
21149;DHT22;10732;51.472;6.466;2023-04-08T06:06:51;6.40;99.90
21149;DHT22;10732;51.472;6.466;2023-04-08T06:09:17;6.30;99.90
21149;DHT22;10732;51.472;6.466;2023-04-08T06:11:42;6.20;99.90
21149;DHT22;10732;51.472;6.466;2023-04-08T06:14:08;6.20;99.90
21149;DHT22;10732;51.472;6.466;2023-04-08T06:16:33;6.20;99.90
21149;DHT22;10732;51.472;6.466;2023-04-08T06:18:59;6.30;99.90
21149;DHT22;10732;51.472;6.466;2023-04-08T06:21:25;6.30;99.90
21149;DHT22;10732;51.472;6.466;2023-04-08T06:23:50;6.40;99.90
21149;DHT22;10732;51.472;6.466;2023-04-08T06:26:16;6.40;99.90
21149;DHT22;10732;51.472;6.466;2023-04-08T06:28:42;6.40;99.90
21149;DHT22;10732;51.472;6.466;2023-04-08T06:31:08;6.50;99.90
21149;DHT22;10732;51.472;6.466;2023-04-08T06:33:33;6.60;99.90
21149;DHT22;10732;51.472;6.466;2023-04-08T06:36:05;6.50;99.90
21149;DHT22;10732;51.472;6.466;2023-04-08T06:38:32;6.60;99.90
21149;DHT22;10732;51.472;6.466;2023-04-08T06:41:03;6.60;99.90
21149;DHT22;10732;51.472;6.466;2023-04-08T06:43:30;6.60;99.90
21149;DHT22;10732;51.472;6.466;2023-04-08T06:45:55;6.60;99.90
21149;DHT22;10732;51.472;6.466;2023-04-08T06:48:22;6.60;99.90
21149;DHT22;10732;51.472;6.466;2023-04-08T06:50:53;6.60;99.90
21149;DHT22;10732;51.472;6.466;2023-04-08T06:53:18;6.60;99.90
21149;DHT22;10732;51.472;6.466;2023-04-08T06:55:44;6.60;99.90
21149;DHT22;10732;51.472;6.466;2023-04-08T06:58:10;6.60;99.90
21149;DHT22;10732;51.472;6.466;2023-04-08T07:00:35;6.60;99.90
21149;DHT22;10732;51.472;6.466;2023-04-08T07:03:01;6.70;99.90
21149;DHT22;10732;51.472;6.466;2023-04-08T07:05:27;6.70;99.90
21149;DHT22;10732;51.472;6.466;2023-04-08T07:07:52;6.80;99.90
21149;DHT22;10732;51.472;6.466;2023-04-08T07:10:18;6.90;99.90
21149;DHT22;10732;51.472;6.466;2023-04-08T07:12:44;7.10;99.90
21149;DHT22;10732;51.472;6.466;2023-04-08T07:15:10;6.90;99.90
21149;DHT22;10732;51.472;6.466;2023-04-08T07:17:35;6.90;99.90
21149;DHT22;10732;51.472;6.466;2023-04-08T07:20:01;7.00;99.90
21149;DHT22;10732;51.472;6.466;2023-04-08T07:22:26;6.80;99.90
21149;DHT22;10732;51.472;6.466;2023-04-08T07:24:52;6.80;99.90
21149;DHT22;10732;51.472;6.466;2023-04-08T07:27:17;6.90;99.90
21149;DHT22;10732;51.472;6.466;2023-04-08T07:29:43;6.80;99.90
21149;DHT22;10732;51.472;6.466;2023-04-08T07:32:08;6.70;99.90
21149;DHT22;10732;51.472;6.466;2023-04-08T07:34:34;6.90;99.90
21149;DHT22;10732;51.472;6.466;2023-04-08T07:37:01;7.00;99.90
21149;DHT22;10732;51.472;6.466;2023-04-08T07:39:26;6.90;99.90
21149;DHT22;10732;51.472;6.466;2023-04-08T07:41:52;6.80;99.90
21149;DHT22;10732;51.472;6.466;2023-04-08T07:44:18;7.10;99.90
21149;DHT22;10732;51.472;6.466;2023-04-08T07:46:44;7.10;99.90
21149;DHT22;10732;51.472;6.466;2023-04-08T07:49:10;7.30;99.90
21149;DHT22;10732;51.472;6.466;2023-04-08T07:51:36;7.70;99.90
21149;DHT22;10732;51.472;6.466;2023-04-08T07:54:02;8.00;99.90
21149;DHT22;10732;51.472;6.466;2023-04-08T07:56:28;8.00;99.90
21149;DHT22;10732;51.472;6.466;2023-04-08T07:58:54;8.20;99.90
21149;DHT22;10732;51.472;6.466;2023-04-08T08:01:20;8.40;99.90
21149;DHT22;10732;51.472;6.466;2023-04-08T08:03:50;8.70;99.90
21149;DHT22;10732;51.472;6.466;2023-04-08T08:06:16;8.60;99.90
21149;DHT22;10732;51.472;6.466;2023-04-08T08:08:42;8.80;99.90
21149;DHT22;10732;51.472;6.466;2023-04-08T08:11:07;8.80;99.90
21149;DHT22;10732;51.472;6.466;2023-04-08T08:13:33;8.60;99.90
21149;DHT22;10732;51.472;6.466;2023-04-08T08:15:59;8.20;99.90
21149;DHT22;10732;51.472;6.466;2023-04-08T08:18:24;7.80;99.90
21149;DHT22;10732;51.472;6.466;2023-04-08T08:20:50;7.90;99.90
21149;DHT22;10732;51.472;6.466;2023-04-08T08:23:16;7.80;99.90
21149;DHT22;10732;51.472;6.466;2023-04-08T08:25:41;7.70;99.90
21149;DHT22;10732;51.472;6.466;2023-04-08T08:28:07;7.80;99.90
21149;DHT22;10732;51.472;6.466;2023-04-08T08:30:32;7.90;99.90
21149;DHT22;10732;51.472;6.466;2023-04-08T08:32:58;7.90;99.90
21149;DHT22;10732;51.472;6.466;2023-04-08T08:35:24;7.90;99.90
21149;DHT22;10732;51.472;6.466;2023-04-08T08:37:50;7.70;99.90
21149;DHT22;10732;51.472;6.466;2023-04-08T08:40:16;7.90;99.90
21149;DHT22;10732;51.472;6.466;2023-04-08T08:42:48;7.80;99.90
21149;DHT22;10732;51.472;6.466;2023-04-08T08:45:15;7.60;99.90
21149;DHT22;10732;51.472;6.466;2023-04-08T08:47:40;7.50;99.90
21149;DHT22;10732;51.472;6.466;2023-04-08T08:50:06;7.30;99.90
21149;DHT22;10732;51.472;6.466;2023-04-08T08:52:32;7.30;99.90
21149;DHT22;10732;51.472;6.466;2023-04-08T08:54:58;7.40;99.90
21149;DHT22;10732;51.472;6.466;2023-04-08T08:57:23;7.70;99.90
21149;DHT22;10732;51.472;6.466;2023-04-08T08:59:49;7.80;99.90
21149;DHT22;10732;51.472;6.466;2023-04-08T09:02:25;8.00;99.90
21149;DHT22;10732;51.472;6.466;2023-04-08T09:05:02;8.10;99.90
21149;DHT22;10732;51.472;6.466;2023-04-08T09:07:29;8.10;99.90
21149;DHT22;10732;51.472;6.466;2023-04-08T09:09:57;8.20;99.90
21149;DHT22;10732;51.472;6.466;2023-04-08T09:12:23;8.40;99.90
21149;DHT22;10732;51.472;6.466;2023-04-08T09:14:49;8.70;99.90
21149;DHT22;10732;51.472;6.466;2023-04-08T09:17:15;9.60;99.90
21149;DHT22;10732;51.472;6.466;2023-04-08T09:20:09;10.70;99.90
21149;DHT22;10732;51.472;6.466;2023-04-08T09:23:00;11.00;99.90
21149;DHT22;10732;51.472;6.466;2023-04-08T09:25:28;10.80;99.90
21149;DHT22;10732;51.472;6.466;2023-04-08T09:27:54;10.80;99.90
21149;DHT22;10732;51.472;6.466;2023-04-08T09:30:21;11.10;99.90
21149;DHT22;10732;51.472;6.466;2023-04-08T09:32:54;11.60;99.90
21149;DHT22;10732;51.472;6.466;2023-04-08T09:35:21;11.90;99.90
21149;DHT22;10732;51.472;6.466;2023-04-08T09:37:48;11.70;99.90
21149;DHT22;10732;51.472;6.466;2023-04-08T09:40:14;12.40;99.90
21149;DHT22;10732;51.472;6.466;2023-04-08T09:42:46;12.80;99.90
21149;DHT22;10732;51.472;6.466;2023-04-08T09:45:15;12.60;99.90
21149;DHT22;10732;51.472;6.466;2023-04-08T09:50:12;13.10;99.90
21149;DHT22;10732;51.472;6.466;2023-04-08T09:52:43;13.10;99.90
21149;DHT22;10732;51.472;6.466;2023-04-08T09:55:12;12.20;99.90
21149;DHT22;10732;51.472;6.466;2023-04-08T09:57:58;11.60;99.90
21149;DHT22;10732;51.472;6.466;2023-04-08T10:00:49;11.60;99.90
21149;DHT22;10732;51.472;6.466;2023-04-08T10:03:29;11.70;99.90
21149;DHT22;10732;51.472;6.466;2023-04-08T10:06:00;12.00;99.90
21149;DHT22;10732;51.472;6.466;2023-04-08T10:08:26;12.30;99.90
21149;DHT22;10732;51.472;6.466;2023-04-08T10:10:53;12.80;99.90
21149;DHT22;10732;51.472;6.466;2023-04-08T10:13:19;13.60;99.90
21149;DHT22;10732;51.472;6.466;2023-04-08T10:15:45;14.10;99.90
21149;DHT22;10732;51.472;6.466;2023-04-08T10:20:45;15.10;99.90
21149;DHT22;10732;51.472;6.466;2023-04-08T10:23:13;15.00;99.90
21149;DHT22;10732;51.472;6.466;2023-04-08T10:25:44;15.40;99.90
21149;DHT22;10732;51.472;6.466;2023-04-08T10:30:48;16.70;99.90
21149;DHT22;10732;51.472;6.466;2023-04-08T10:33:19;16.40;99.90
21149;DHT22;10732;51.472;6.466;2023-04-08T10:35:54;15.70;99.90
21149;DHT22;10732;51.472;6.466;2023-04-08T10:38:20;16.10;99.90
21149;DHT22;10732;51.472;6.466;2023-04-08T10:40:48;16.30;99.90
21149;DHT22;10732;51.472;6.466;2023-04-08T10:43:14;17.20;99.90
21149;DHT22;10732;51.472;6.466;2023-04-08T10:45:41;18.20;99.90
21149;DHT22;10732;51.472;6.466;2023-04-08T10:48:16;16.60;99.90
21149;DHT22;10732;51.472;6.466;2023-04-08T10:50:45;17.00;99.90
21149;DHT22;10732;51.472;6.466;2023-04-08T10:53:16;17.40;99.90
21149;DHT22;10732;51.472;6.466;2023-04-08T10:55:41;16.70;99.90
21149;DHT22;10732;51.472;6.466;2023-04-08T10:58:09;15.70;99.90
21149;DHT22;10732;51.472;6.466;2023-04-08T11:00:39;15.20;99.90
21149;DHT22;10732;51.472;6.466;2023-04-08T11:03:07;15.50;99.90
21149;DHT22;10732;51.472;6.466;2023-04-08T11:05:33;16.00;99.90
21149;DHT22;10732;51.472;6.466;2023-04-08T11:08:00;14.90;99.90
21149;DHT22;10732;51.472;6.466;2023-04-08T11:10:26;14.10;99.90
21149;DHT22;10732;51.472;6.466;2023-04-08T11:12:56;14.00;99.90
21149;DHT22;10732;51.472;6.466;2023-04-08T11:15:23;14.00;99.90
21149;DHT22;10732;51.472;6.466;2023-04-08T11:17:50;14.40;99.90
21149;DHT22;10732;51.472;6.466;2023-04-08T11:20:16;14.30;99.90
21149;DHT22;10732;51.472;6.466;2023-04-08T11:22:43;13.60;99.90
21149;DHT22;10732;51.472;6.466;2023-04-08T11:25:10;13.00;99.90
21149;DHT22;10732;51.472;6.466;2023-04-08T11:27:36;12.60;99.90
21149;DHT22;10732;51.472;6.466;2023-04-08T11:30:03;12.90;99.90
21149;DHT22;10732;51.472;6.466;2023-04-08T11:32:30;12.60;99.90
21149;DHT22;10732;51.472;6.466;2023-04-08T11:34:59;12.60;99.90
21149;DHT22;10732;51.472;6.466;2023-04-08T11:37:25;12.70;99.90
21149;DHT22;10732;51.472;6.466;2023-04-08T11:39:53;12.50;99.90
21149;DHT22;10732;51.472;6.466;2023-04-08T11:42:28;12.30;99.90
21149;DHT22;10732;51.472;6.466;2023-04-08T11:44:54;12.00;99.90
21149;DHT22;10732;51.472;6.466;2023-04-08T11:47:20;12.00;99.90
21149;DHT22;10732;51.472;6.466;2023-04-08T11:49:46;12.30;99.90
21149;DHT22;10732;51.472;6.466;2023-04-08T11:52:12;12.40;99.90
21149;DHT22;10732;51.472;6.466;2023-04-08T11:54:42;12.10;99.90
21149;DHT22;10732;51.472;6.466;2023-04-08T11:57:08;11.90;99.90
21149;DHT22;10732;51.472;6.466;2023-04-08T11:59:36;11.80;99.90
21149;DHT22;10732;51.472;6.466;2023-04-08T12:02:02;11.40;99.90
21149;DHT22;10732;51.472;6.466;2023-04-08T12:04:28;11.30;99.90
21149;DHT22;10732;51.472;6.466;2023-04-08T12:06:54;11.40;99.90
21149;DHT22;10732;51.472;6.466;2023-04-08T12:09:20;11.50;99.90
21149;DHT22;10732;51.472;6.466;2023-04-08T12:11:45;11.60;99.90
21149;DHT22;10732;51.472;6.466;2023-04-08T12:14:11;11.50;99.90
21149;DHT22;10732;51.472;6.466;2023-04-08T12:16:36;11.50;99.90
21149;DHT22;10732;51.472;6.466;2023-04-08T12:19:02;11.50;99.90
21149;DHT22;10732;51.472;6.466;2023-04-08T12:21:28;11.60;99.90
21149;DHT22;10732;51.472;6.466;2023-04-08T12:23:53;11.60;99.90
21149;DHT22;10732;51.472;6.466;2023-04-08T12:26:19;11.60;99.90
21149;DHT22;10732;51.472;6.466;2023-04-08T12:28:45;11.70;99.90
21149;DHT22;10732;51.472;6.466;2023-04-08T12:31:11;12.00;99.90
21149;DHT22;10732;51.472;6.466;2023-04-08T12:33:36;11.70;99.90
21149;DHT22;10732;51.472;6.466;2023-04-08T12:36:02;12.00;99.90
21149;DHT22;10732;51.472;6.466;2023-04-08T12:38:28;12.20;99.90
21149;DHT22;10732;51.472;6.466;2023-04-08T12:40:54;12.10;99.90
21149;DHT22;10732;51.472;6.466;2023-04-08T12:43:20;12.40;99.90
21149;DHT22;10732;51.472;6.466;2023-04-08T12:45:46;12.70;99.90
21149;DHT22;10732;51.472;6.466;2023-04-08T12:48:13;13.10;99.90
21149;DHT22;10732;51.472;6.466;2023-04-08T12:50:38;13.00;99.90
21149;DHT22;10732;51.472;6.466;2023-04-08T12:53:04;12.60;99.90
21149;DHT22;10732;51.472;6.466;2023-04-08T12:55:29;12.50;99.90
21149;DHT22;10732;51.472;6.466;2023-04-08T12:57:55;12.60;99.90
21149;DHT22;10732;51.472;6.466;2023-04-08T13:00:21;12.90;99.90
21149;DHT22;10732;51.472;6.466;2023-04-08T13:02:46;13.00;99.90
21149;DHT22;10732;51.472;6.466;2023-04-08T13:05:12;13.10;99.90
21149;DHT22;10732;51.472;6.466;2023-04-08T13:07:37;13.10;99.90
21149;DHT22;10732;51.472;6.466;2023-04-08T13:10:03;12.90;99.90
21149;DHT22;10732;51.472;6.466;2023-04-08T13:12:31;13.00;99.90
21149;DHT22;10732;51.472;6.466;2023-04-08T13:14:57;13.00;99.90
21149;DHT22;10732;51.472;6.466;2023-04-08T13:17:23;13.50;99.90
21149;DHT22;10732;51.472;6.466;2023-04-08T13:19:48;14.10;99.90
21149;DHT22;10732;51.472;6.466;2023-04-08T13:22:15;14.00;99.90
21149;DHT22;10732;51.472;6.466;2023-04-08T13:24:40;14.20;99.90
21149;DHT22;10732;51.472;6.466;2023-04-08T13:27:06;14.10;99.90
21149;DHT22;10732;51.472;6.466;2023-04-08T13:29:32;14.60;99.90
21149;DHT22;10732;51.472;6.466;2023-04-08T13:31:58;13.80;99.90
21149;DHT22;10732;51.472;6.466;2023-04-08T13:34:23;13.80;99.90
21149;DHT22;10732;51.472;6.466;2023-04-08T13:36:49;13.70;99.90
21149;DHT22;10732;51.472;6.466;2023-04-08T13:39:15;14.00;99.90
21149;DHT22;10732;51.472;6.466;2023-04-08T13:41:40;14.40;99.90
21149;DHT22;10732;51.472;6.466;2023-04-08T13:44:06;14.40;99.90
21149;DHT22;10732;51.472;6.466;2023-04-08T13:46:31;14.10;99.90
21149;DHT22;10732;51.472;6.466;2023-04-08T13:48:57;13.60;99.90
21149;DHT22;10732;51.472;6.466;2023-04-08T13:51:23;13.80;99.90
21149;DHT22;10732;51.472;6.466;2023-04-08T13:53:48;13.70;99.90
21149;DHT22;10732;51.472;6.466;2023-04-08T13:56:14;13.60;99.90
21149;DHT22;10732;51.472;6.466;2023-04-08T13:58:39;13.40;99.90
21149;DHT22;10732;51.472;6.466;2023-04-08T14:01:05;13.30;99.90
21149;DHT22;10732;51.472;6.466;2023-04-08T14:03:31;13.60;99.90
21149;DHT22;10732;51.472;6.466;2023-04-08T14:05:56;13.30;99.90
21149;DHT22;10732;51.472;6.466;2023-04-08T14:08:23;13.20;99.90
21149;DHT22;10732;51.472;6.466;2023-04-08T14:10:54;13.50;99.90
21149;DHT22;10732;51.472;6.466;2023-04-08T14:13:20;13.50;99.90
21149;DHT22;10732;51.472;6.466;2023-04-08T14:15:46;13.70;99.90
21149;DHT22;10732;51.472;6.466;2023-04-08T14:18:12;13.40;99.90
21149;DHT22;10732;51.472;6.466;2023-04-08T14:20:38;13.20;99.90
21149;DHT22;10732;51.472;6.466;2023-04-08T14:23:03;13.10;99.90
21149;DHT22;10732;51.472;6.466;2023-04-08T14:25:29;13.40;99.90
21149;DHT22;10732;51.472;6.466;2023-04-08T14:27:55;13.10;99.90
21149;DHT22;10732;51.472;6.466;2023-04-08T14:30:21;13.10;99.90
21149;DHT22;10732;51.472;6.466;2023-04-08T14:32:47;13.10;99.90
21149;DHT22;10732;51.472;6.466;2023-04-08T14:35:12;12.90;99.90
21149;DHT22;10732;51.472;6.466;2023-04-08T14:37:38;12.70;99.90
21149;DHT22;10732;51.472;6.466;2023-04-08T14:40:04;12.80;99.90
21149;DHT22;10732;51.472;6.466;2023-04-08T14:42:30;12.90;99.90
21149;DHT22;10732;51.472;6.466;2023-04-08T14:44:55;12.70;99.90
21149;DHT22;10732;51.472;6.466;2023-04-08T14:47:22;12.90;99.90
21149;DHT22;10732;51.472;6.466;2023-04-08T14:49:47;12.90;99.90
21149;DHT22;10732;51.472;6.466;2023-04-08T14:52:13;12.90;99.90
21149;DHT22;10732;51.472;6.466;2023-04-08T14:54:39;12.90;99.90
21149;DHT22;10732;51.472;6.466;2023-04-08T14:57:05;12.90;99.90
21149;DHT22;10732;51.472;6.466;2023-04-08T14:59:31;13.00;99.90
21149;DHT22;10732;51.472;6.466;2023-04-08T15:01:56;12.80;99.90
21149;DHT22;10732;51.472;6.466;2023-04-08T15:04:22;12.80;99.90
21149;DHT22;10732;51.472;6.466;2023-04-08T15:06:47;12.90;99.90
21149;DHT22;10732;51.472;6.466;2023-04-08T15:09:13;12.70;99.90
21149;DHT22;10732;51.472;6.466;2023-04-08T15:11:39;12.60;99.90
21149;DHT22;10732;51.472;6.466;2023-04-08T15:14:04;12.40;99.90
21149;DHT22;10732;51.472;6.466;2023-04-08T15:16:30;12.40;99.90
21149;DHT22;10732;51.472;6.466;2023-04-08T15:18:56;12.40;99.90
21149;DHT22;10732;51.472;6.466;2023-04-08T15:21:24;12.40;99.90
21149;DHT22;10732;51.472;6.466;2023-04-08T15:23:51;12.30;99.90
21149;DHT22;10732;51.472;6.466;2023-04-08T15:26:16;12.20;99.90
21149;DHT22;10732;51.472;6.466;2023-04-08T15:28:42;12.20;99.90
21149;DHT22;10732;51.472;6.466;2023-04-08T15:31:07;12.40;99.90
21149;DHT22;10732;51.472;6.466;2023-04-08T15:33:33;12.30;99.90
21149;DHT22;10732;51.472;6.466;2023-04-08T15:36:00;12.10;99.90
21149;DHT22;10732;51.472;6.466;2023-04-08T15:38:29;12.00;99.90
21149;DHT22;10732;51.472;6.466;2023-04-08T15:40:55;11.90;99.90
21149;DHT22;10732;51.472;6.466;2023-04-08T15:43:20;12.10;99.90
21149;DHT22;10732;51.472;6.466;2023-04-08T15:45:46;12.00;99.90
21149;DHT22;10732;51.472;6.466;2023-04-08T15:48:12;12.00;99.90